createdAt,value
2023-01-20T00:01:25.342Z,-1.26
2023-01-20T00:03:54.498Z,-1.27
2023-01-20T00:06:22.905Z,-1.26
2023-01-20T00:08:54.402Z,-1.26
2023-01-20T00:11:22.358Z,-1.35
2023-01-20T00:13:55.549Z,-1.29
2023-01-20T00:16:23.837Z,-1.34
2023-01-20T00:18:51.551Z,-1.34
2023-01-20T00:21:19.555Z,-1.32
2023-01-20T00:23:48.038Z,-1.33
2023-01-20T00:26:18.249Z,-1.30
2023-01-20T00:28:46.392Z,-1.33
2023-01-20T00:31:46.000Z,-1.22
2023-01-20T00:34:13.209Z,-1.30
2023-01-20T00:36:40.858Z,-1.35
2023-01-20T00:39:08.023Z,-1.28
2023-01-20T00:41:35.619Z,-1.28
2023-01-20T00:44:02.835Z,-1.18
2023-01-20T00:46:30.370Z,-1.28
2023-01-20T00:48:57.790Z,-1.28
2023-01-20T00:51:25.247Z,-1.38
2023-01-20T00:53:52.440Z,-1.35
2023-01-20T00:56:20.005Z,-1.44
2023-01-20T00:58:48.825Z,-1.48
2023-01-20T01:01:16.446Z,-1.43
2023-01-20T01:03:44.356Z,-1.41
2023-01-20T01:06:15.026Z,-1.37
2023-01-20T01:08:43.416Z,-1.42
2023-01-20T01:11:12.187Z,-1.48
2023-01-20T01:13:39.719Z,-1.45
2023-01-20T01:16:15.705Z,-1.39
2023-01-20T01:18:43.637Z,-1.40
2023-01-20T01:21:14.429Z,-1.37
2023-01-20T01:23:43.757Z,-1.41
2023-01-20T01:26:11.382Z,-1.43
2023-01-20T01:28:39.091Z,-1.42
2023-01-20T01:31:08.651Z,-1.39
2023-01-20T01:33:36.133Z,-1.43
2023-01-20T01:36:04.598Z,-1.47
2023-01-20T01:38:31.831Z,-1.41
2023-01-20T01:40:59.546Z,-1.45
2023-01-20T01:43:33.005Z,-1.52
2023-01-20T01:46:01.129Z,-1.25
2023-01-20T01:48:40.465Z,-1.28
2023-01-20T01:51:15.576Z,-1.19
2023-01-20T01:53:49.417Z,-1.21
2023-01-20T01:56:17.198Z,-1.26
2023-01-20T01:58:48.468Z,-1.27
2023-01-20T02:01:16.500Z,-1.25
2023-01-20T02:04:07.572Z,-1.39
2023-01-20T02:06:42.929Z,-1.30
2023-01-20T02:09:10.370Z,-1.38
2023-01-20T02:11:44.035Z,-1.33
2023-01-20T02:14:12.323Z,-1.38
2023-01-20T02:17:03.490Z,-1.35
2023-01-20T02:19:36.526Z,-1.31
2023-01-20T02:22:34.629Z,-1.29
2023-01-20T02:25:03.132Z,-1.33
2023-01-20T02:27:52.425Z,-1.34
2023-01-20T02:30:45.445Z,-1.28
2023-01-20T02:33:29.406Z,-1.16
2023-01-20T02:36:07.306Z,-1.11
2023-01-20T02:38:53.265Z,-1.15
2023-01-20T02:41:44.924Z,-1.09
2023-01-20T02:44:32.640Z,-1.11
2023-01-20T02:47:17.361Z,-1.07
2023-01-20T02:50:11.183Z,-0.97
2023-01-20T02:52:44.683Z,-0.99
2023-01-20T02:55:25.589Z,-1.01
2023-01-20T02:58:01.075Z,-0.97
2023-01-20T03:00:44.640Z,-0.99
2023-01-20T03:03:16.962Z,-1.07
2023-01-20T03:05:58.972Z,-1.02
2023-01-20T03:08:30.119Z,-0.95
2023-01-20T03:11:05.194Z,-0.99
2023-01-20T03:13:44.895Z,-1.00
2023-01-20T03:16:20.596Z,-1.12
2023-01-20T03:18:48.100Z,-1.04
2023-01-20T03:21:15.769Z,-1.09
2023-01-20T03:23:48.010Z,-1.07
2023-01-20T03:26:17.385Z,-1.15
2023-01-20T03:28:46.256Z,-1.05
2023-01-20T03:31:34.436Z,-1.09
2023-01-20T03:34:06.629Z,-1.02
2023-01-20T03:36:34.466Z,-1.03
2023-01-20T03:39:01.815Z,-1.07
2023-01-20T03:41:33.420Z,-1.09
2023-01-20T03:44:00.639Z,-1.11
2023-01-20T03:46:33.509Z,-1.06
2023-01-20T03:49:25.619Z,-1.04
2023-01-20T03:52:09.237Z,-0.99
2023-01-20T03:54:51.123Z,-1.03
2023-01-20T03:57:25.420Z,-1.07
2023-01-20T03:59:54.395Z,-1.06
2023-01-20T04:02:24.079Z,-1.04
2023-01-20T04:04:53.364Z,-1.01
2023-01-20T04:07:25.210Z,-1.01
2023-01-20T04:09:57.096Z,-0.98
2023-01-20T04:12:24.807Z,-0.98
2023-01-20T04:14:52.074Z,-0.99
2023-01-20T04:17:20.391Z,-0.95
2023-01-20T04:19:48.557Z,-1.00
2023-01-20T04:22:44.220Z,-0.90
2023-01-20T04:25:24.830Z,-0.94
2023-01-20T04:27:52.444Z,-0.94
2023-01-20T04:30:19.806Z,-0.96
2023-01-20T04:32:47.537Z,-0.97
2023-01-20T04:35:18.755Z,-0.94
2023-01-20T04:37:46.308Z,-0.97
2023-01-20T04:40:13.976Z,-0.99
2023-01-20T04:42:41.592Z,-1.01
2023-01-20T04:45:10.388Z,-0.97
2023-01-20T04:47:37.984Z,-1.02
2023-01-20T04:50:05.503Z,-1.02
2023-01-20T04:52:32.967Z,-1.10
2023-01-20T04:55:00.268Z,-1.03
2023-01-20T04:57:27.778Z,-1.12
2023-01-20T04:59:55.220Z,-1.21
2023-01-20T05:02:22.866Z,-1.18
2023-01-20T05:04:50.146Z,-1.18
2023-01-20T05:07:17.593Z,-1.24
2023-01-20T05:09:44.774Z,-1.17
2023-01-20T05:12:12.247Z,-1.19
2023-01-20T05:14:39.499Z,-1.23
2023-01-20T05:17:09.063Z,-1.17
2023-01-20T05:19:36.530Z,-1.23
2023-01-20T05:22:05.143Z,-1.28
2023-01-20T05:24:32.319Z,-1.25
2023-01-20T05:27:03.332Z,-1.29
2023-01-20T05:29:30.636Z,-1.28
2023-01-20T05:31:58.838Z,-1.26
2023-01-20T05:34:26.161Z,-1.19
2023-01-20T05:36:54.611Z,-1.15
2023-01-20T05:39:22.109Z,-1.14
2023-01-20T05:41:49.815Z,-1.10
2023-01-20T05:44:17.121Z,-1.09
2023-01-20T05:46:45.890Z,-1.09
2023-01-20T05:49:13.304Z,-1.04
2023-01-20T05:51:40.764Z,-1.07
2023-01-20T05:54:07.956Z,-1.00
2023-01-20T05:56:35.725Z,-1.00
2023-01-20T05:59:03.339Z,-1.10
2023-01-20T06:01:30.813Z,-1.02
2023-01-20T06:03:58.622Z,-1.08
2023-01-20T06:06:26.211Z,-1.09
2023-01-20T06:08:53.789Z,-1.11
2023-01-20T06:11:21.506Z,-1.19
2023-01-20T06:13:49.253Z,-1.28
2023-01-20T06:16:18.396Z,-1.30
2023-01-20T06:18:45.864Z,-1.26
2023-01-20T06:21:13.609Z,-1.24
2023-01-20T06:23:41.104Z,-1.29
2023-01-20T06:26:12.797Z,-1.31
2023-01-20T06:28:40.724Z,-1.30
2023-01-20T06:31:11.371Z,-1.28
2023-01-20T06:33:39.589Z,-1.28
2023-01-20T06:36:08.120Z,-1.28
2023-01-20T06:38:36.749Z,-1.23
2023-01-20T06:41:08.245Z,-1.16
2023-01-20T06:43:40.134Z,-1.14
2023-01-20T06:46:14.099Z,-1.06
2023-01-20T06:48:42.813Z,-1.07
2023-01-20T06:51:16.433Z,-1.04
2023-01-20T06:53:44.218Z,-1.04
2023-01-20T06:56:13.492Z,-0.96
2023-01-20T06:58:42.003Z,-1.00
2023-01-20T07:01:15.434Z,-1.00
2023-01-20T07:03:46.368Z,-1.04
2023-01-20T07:06:15.416Z,-0.99
2023-01-20T07:08:44.575Z,-0.94
2023-01-20T07:11:12.168Z,-1.03
2023-01-20T07:13:39.758Z,-0.94
2023-01-20T07:16:10.202Z,-0.97
2023-01-20T07:18:39.036Z,-0.98
2023-01-20T07:21:06.470Z,-0.87
2023-01-20T07:23:34.141Z,-0.86
2023-01-20T07:26:04.424Z,-0.76
2023-01-20T07:28:33.095Z,-0.73
2023-01-20T07:31:05.225Z,-0.68
2023-01-20T07:33:33.589Z,-0.75
2023-01-20T07:36:02.098Z,-0.68
2023-01-20T07:38:30.222Z,-0.65
2023-01-20T07:41:02.921Z,-0.55
2023-01-20T07:43:31.761Z,-0.56
2023-01-20T07:46:01.469Z,-0.50
2023-01-20T07:48:32.747Z,-0.44
2023-01-20T07:51:03.266Z,-0.41
2023-01-20T07:53:33.575Z,-0.40
2023-01-20T07:56:08.602Z,-0.34
2023-01-20T07:58:38.735Z,-0.33
2023-01-20T08:01:18.540Z,-0.25
2023-01-20T08:03:46.837Z,-0.27
2023-01-20T08:06:16.094Z,-0.19
2023-01-20T08:08:43.844Z,-0.18
2023-01-20T08:11:13.797Z,-0.11
2023-01-20T08:13:42.115Z,-0.12
2023-01-20T08:16:12.565Z,-0.03
2023-01-20T08:18:40.630Z,-0.03
2023-01-20T08:21:16.385Z,-0.05
2023-01-20T08:23:43.995Z,-0.02
2023-01-20T08:26:11.101Z,0.01
2023-01-20T08:28:38.647Z,0.02
2023-01-20T08:31:08.543Z,0.01
2023-01-20T08:33:36.776Z,0.08
2023-01-20T08:36:10.758Z,0.17
2023-01-20T08:38:39.058Z,0.20
2023-01-20T08:41:08.535Z,0.26
2023-01-20T08:43:36.485Z,0.19
2023-01-20T08:46:09.786Z,0.29
2023-01-20T08:48:39.312Z,0.30
2023-01-20T08:51:14.531Z,0.33
2023-01-20T08:53:42.896Z,0.32
2023-01-20T08:56:11.758Z,0.39
2023-01-20T08:58:41.412Z,0.45
2023-01-20T09:01:13.803Z,0.40
2023-01-20T09:03:45.086Z,0.37
2023-01-20T09:06:17.245Z,0.35
2023-01-20T09:08:44.720Z,0.27
2023-01-20T09:11:15.455Z,0.23
2023-01-20T09:13:43.005Z,0.21
2023-01-20T09:16:15.385Z,0.18
2023-01-20T09:18:43.246Z,0.15
2023-01-20T09:21:10.836Z,0.12
2023-01-20T09:23:40.974Z,0.16
2023-01-20T09:26:08.723Z,0.13
2023-01-20T09:28:37.373Z,0.15
2023-01-20T09:31:09.793Z,0.14
2023-01-20T09:33:39.382Z,-0.03
2023-01-20T09:36:10.062Z,-0.01
2023-01-20T09:38:57.160Z,0.02
2023-01-20T09:41:54.450Z,0.03
2023-01-20T09:44:30.836Z,0.03
2023-01-20T09:47:22.448Z,0.03
2023-01-20T09:50:20.450Z,0.12
2023-01-20T09:53:08.150Z,0.14
2023-01-20T09:55:44.733Z,0.07
2023-01-20T09:58:21.198Z,0.04
2023-01-20T10:01:13.214Z,0.00
2023-01-20T10:04:04.971Z,-0.02
2023-01-20T10:06:39.307Z,-0.12
2023-01-20T10:09:38.147Z,0.09
2023-01-20T10:12:09.647Z,0.08
2023-01-20T10:14:55.836Z,0.09
2023-01-20T10:17:39.045Z,0.09
2023-01-20T10:20:32.641Z,0.10
2023-01-20T10:23:49.690Z,0.13
2023-01-20T10:26:26.805Z,0.12
2023-01-20T10:29:03.075Z,0.24
2023-01-20T10:31:38.151Z,0.14
2023-01-20T10:34:17.299Z,0.12
2023-01-20T10:36:50.828Z,-0.06
2023-01-20T10:39:27.525Z,-0.16
2023-01-20T10:42:15.542Z,-0.19
2023-01-20T10:44:44.301Z,-0.27
2023-01-20T10:47:14.027Z,-0.27
2023-01-20T10:50:06.004Z,-0.29
2023-01-20T10:53:12.760Z,-0.25
2023-01-20T10:55:59.557Z,-0.13
2023-01-20T10:58:30.519Z,-0.07
2023-01-20T11:01:02.978Z,0.01
2023-01-20T11:03:36.483Z,0.08
2023-01-20T11:06:04.711Z,0.10
2023-01-20T11:08:31.951Z,0.14
2023-01-20T11:11:09.915Z,0.10
2023-01-20T11:13:37.199Z,0.12
2023-01-20T11:16:14.229Z,0.23
2023-01-20T11:18:41.594Z,0.18
2023-01-20T11:21:12.914Z,0.22
2023-01-20T11:23:49.260Z,0.26
2023-01-20T11:26:28.108Z,0.26
2023-01-20T11:28:59.657Z,0.06
2023-01-20T11:31:53.678Z,0.09
2023-01-20T11:34:22.992Z,0.00
2023-01-20T11:37:11.299Z,0.08
2023-01-20T11:40:17.927Z,0.16
2023-01-20T11:42:48.189Z,0.10
2023-01-20T11:45:28.133Z,-0.08
2023-01-20T11:48:19.357Z,-0.06
2023-01-20T11:50:57.744Z,-0.16
2023-01-20T11:53:31.883Z,-0.12
2023-01-20T11:56:03.567Z,-0.15
2023-01-20T11:58:59.920Z,-0.11
2023-01-20T12:01:49.608Z,-0.08
2023-01-20T12:04:25.452Z,-0.16
2023-01-20T12:07:31.992Z,-0.19
2023-01-20T12:10:12.129Z,-0.21
2023-01-20T12:12:45.588Z,-0.32
2023-01-20T12:15:19.656Z,-0.24
2023-01-20T12:17:49.477Z,-0.32
2023-01-20T12:20:24.919Z,-0.22
2023-01-20T12:23:14.736Z,-0.23
2023-01-20T12:26:00.799Z,-0.31
2023-01-20T12:28:51.391Z,-0.30
2023-01-20T12:31:24.022Z,-0.34
2023-01-20T12:33:59.190Z,-0.34
2023-01-20T12:36:31.087Z,-0.39
2023-01-20T12:39:16.463Z,-0.33
2023-01-20T12:42:05.472Z,-0.39
2023-01-20T12:44:53.964Z,-0.34
2023-01-20T12:47:33.623Z,-0.33
2023-01-20T12:50:19.710Z,-0.32
2023-01-20T12:52:57.024Z,-0.37
2023-01-20T12:55:46.100Z,-0.41
2023-01-20T12:58:24.561Z,-0.42
2023-01-20T13:01:22.876Z,-0.41
2023-01-20T13:04:02.738Z,-0.43
2023-01-20T13:06:53.740Z,-0.41
2023-01-20T13:09:24.402Z,-0.48
2023-01-20T13:12:42.524Z,-0.43
2023-01-20T13:15:22.699Z,-0.50
2023-01-20T13:18:01.868Z,-0.46
2023-01-20T13:20:30.949Z,-0.60
2023-01-20T13:23:04.621Z,-0.63
2023-01-20T13:25:35.156Z,-0.74
2023-01-20T13:28:04.140Z,-0.86
2023-01-20T13:30:44.335Z,-0.90
2023-01-20T13:33:30.128Z,-0.91
2023-01-20T13:35:57.881Z,-0.97
2023-01-20T13:38:30.941Z,-0.78
2023-01-20T13:51:27.793Z,-1.53
2023-01-20T13:54:29.227Z,-1.34
2023-01-20T13:57:26.275Z,-1.13
2023-01-20T13:59:55.012Z,-1.09
2023-01-20T14:02:28.948Z,-1.06
2023-01-20T14:04:58.921Z,-1.06
2023-01-20T14:07:28.631Z,-1.05
2023-01-20T14:09:58.616Z,-1.10
2023-01-20T14:12:26.326Z,-1.08
2023-01-20T14:14:54.618Z,-1.06
2023-01-20T14:17:25.292Z,-1.05
2023-01-20T14:19:55.356Z,-0.94
2023-01-20T14:22:30.786Z,-0.92
2023-01-20T14:25:00.847Z,-0.96
2023-01-20T14:27:35.621Z,-0.85
2023-01-20T14:30:21.840Z,-0.89
2023-01-20T14:32:50.719Z,-0.97
2023-01-20T14:35:27.901Z,-0.98
2023-01-20T14:37:55.500Z,-1.03
2023-01-20T14:40:31.206Z,-1.05
2023-01-20T14:43:03.787Z,-1.21
2023-01-20T14:45:33.256Z,-1.08
2023-01-20T14:48:02.882Z,-1.10
2023-01-20T14:50:30.845Z,-1.13
2023-01-20T14:52:58.262Z,-1.09
2023-01-20T14:55:35.824Z,-1.16
2023-01-20T14:58:14.799Z,-1.16
2023-01-20T15:00:44.884Z,-1.18
2023-01-20T15:03:25.703Z,-1.24
2023-01-20T15:05:59.629Z,-1.21
2023-01-20T15:08:32.893Z,-1.26
2023-01-20T15:11:16.642Z,-1.30
2023-01-20T15:14:10.387Z,-1.32
2023-01-20T15:16:44.325Z,-1.43
2023-01-20T15:19:15.428Z,-1.33
2023-01-20T15:21:54.324Z,-1.27
2023-01-20T15:24:30.718Z,-1.28
2023-01-20T15:27:02.837Z,-1.29
2023-01-20T15:29:35.704Z,-1.24
2023-01-20T15:32:10.995Z,-1.17
2023-01-20T15:34:39.486Z,-1.26
2023-01-20T15:37:17.329Z,-1.16
2023-01-20T15:39:44.808Z,-1.23
2023-01-20T15:42:13.223Z,-1.34
2023-01-20T15:44:40.461Z,-1.26
2023-01-20T15:47:20.007Z,-1.11
2023-01-20T15:49:48.111Z,-1.21
2023-01-20T15:52:15.624Z,-1.13
2023-01-20T15:54:42.912Z,-1.04
2023-01-20T15:57:14.411Z,-1.05
2023-01-20T15:59:45.683Z,-1.29
2023-01-20T16:02:21.920Z,-1.17
2023-01-20T16:04:50.209Z,-1.19
2023-01-20T16:07:19.965Z,-1.39
2023-01-20T16:09:47.645Z,-1.36
2023-01-20T16:12:17.735Z,-1.41
2023-01-20T16:14:45.585Z,-1.46
2023-01-20T16:17:15.788Z,-1.39
2023-01-20T16:19:43.100Z,-1.40
2023-01-20T16:22:16.516Z,-1.37
2023-01-20T16:24:44.177Z,-1.47
2023-01-20T16:27:18.782Z,-1.47
2023-01-20T16:29:46.448Z,-1.61
2023-01-20T16:32:17.058Z,-1.56
2023-01-20T16:34:45.643Z,-1.52
2023-01-20T16:37:14.685Z,-1.52
2023-01-20T16:39:42.323Z,-1.52
2023-01-20T16:42:15.265Z,-1.50
2023-01-20T16:44:43.105Z,-1.51
2023-01-20T16:47:10.713Z,-1.50
2023-01-20T16:49:39.103Z,-1.47
2023-01-20T16:52:06.717Z,-1.57
2023-01-20T16:54:33.934Z,-1.47
2023-01-20T16:57:01.475Z,-1.47
2023-01-20T16:59:30.443Z,-1.47
2023-01-20T17:01:58.048Z,-1.55
2023-01-20T17:04:25.883Z,-1.49
2023-01-20T17:06:53.802Z,-1.47
2023-01-20T17:09:20.960Z,-1.53
2023-01-20T17:11:49.430Z,-1.43
2023-01-20T17:14:16.671Z,-1.40
2023-01-20T17:16:45.530Z,-1.50
2023-01-20T17:19:14.775Z,-1.51
2023-01-20T17:21:44.319Z,-1.54
2023-01-20T17:24:12.348Z,-1.65
2023-01-20T17:26:40.288Z,-1.64
2023-01-20T17:29:08.848Z,-1.61
2023-01-20T17:31:37.212Z,-1.67
2023-01-20T17:34:09.547Z,-1.70
2023-01-20T17:36:38.903Z,-1.77
2023-01-20T17:39:07.143Z,-1.78
2023-01-20T17:41:34.944Z,-1.81
2023-01-20T17:44:02.254Z,-1.90
2023-01-20T17:46:30.950Z,-1.88
2023-01-20T17:48:59.842Z,-1.86
2023-01-20T17:51:30.045Z,-1.75
2023-01-20T17:53:58.203Z,-1.69
2023-01-20T17:56:26.854Z,-1.68
2023-01-20T17:58:54.246Z,-1.65
2023-01-20T18:01:25.139Z,-1.59
2023-01-20T18:03:55.531Z,-1.66
2023-01-20T18:06:25.551Z,-1.80
2023-01-20T18:09:00.620Z,-1.72
2023-01-20T18:11:31.741Z,-1.69
2023-01-20T18:14:00.674Z,-1.73
2023-01-20T18:16:37.193Z,-1.68
2023-01-20T18:19:05.002Z,-1.68
2023-01-20T18:21:38.365Z,-1.69
2023-01-20T18:24:10.183Z,-1.73
2023-01-20T18:26:39.658Z,-1.76
2023-01-20T18:29:08.984Z,-1.76
2023-01-20T18:31:36.767Z,-1.77
2023-01-20T18:34:06.782Z,-1.75
2023-01-20T18:36:39.099Z,-1.72
2023-01-20T18:39:16.171Z,-1.71
2023-01-20T18:41:45.260Z,-1.76
2023-01-20T18:44:13.881Z,-1.70
2023-01-20T18:46:42.923Z,-1.70
2023-01-20T18:49:15.123Z,-1.63
2023-01-20T18:51:43.348Z,-1.64
2023-01-20T18:54:21.279Z,-1.51
2023-01-20T18:56:49.025Z,-1.55
2023-01-20T18:59:16.367Z,-1.59
2023-01-20T19:01:44.380Z,-1.67
2023-01-20T19:04:12.698Z,-1.56
2023-01-20T19:06:43.316Z,-1.52
2023-01-20T19:09:11.679Z,-1.55
2023-01-20T19:11:41.191Z,-1.64
2023-01-20T19:14:14.258Z,-1.60
2023-01-20T19:16:49.626Z,-1.68
2023-01-20T19:19:19.216Z,-1.72
2023-01-20T19:21:50.924Z,-1.77
2023-01-20T19:24:20.507Z,-1.80
2023-01-20T19:26:48.311Z,-1.90
2023-01-20T19:29:17.755Z,-1.95
2023-01-20T19:31:45.410Z,-2.10
2023-01-20T19:34:13.085Z,-2.09
2023-01-20T19:36:40.824Z,-2.10
2023-01-20T19:39:08.098Z,-2.17
2023-01-20T19:41:36.493Z,-2.20
2023-01-20T19:44:06.843Z,-2.18
2023-01-20T19:46:37.182Z,-2.12
2023-01-20T19:49:05.262Z,-2.10
2023-01-20T19:51:33.021Z,-2.10
2023-01-20T19:54:01.797Z,-1.99
2023-01-20T19:56:32.480Z,-1.95
2023-01-20T19:59:00.959Z,-1.82
2023-01-20T20:01:31.825Z,-1.80
2023-01-20T20:04:04.558Z,-1.73
2023-01-20T20:06:48.500Z,-1.74
2023-01-20T20:09:18.525Z,-1.66
2023-01-20T20:11:47.920Z,-1.74
2023-01-20T20:14:17.829Z,-1.82
2023-01-20T20:16:45.842Z,-1.95
2023-01-20T20:19:16.315Z,-1.86
2023-01-20T20:21:44.255Z,-1.90
2023-01-20T20:24:13.137Z,-1.92
2023-01-20T20:26:41.855Z,-1.97
2023-01-20T20:29:10.690Z,-1.95
2023-01-20T20:31:40.505Z,-1.91
2023-01-20T20:34:11.801Z,-1.82
2023-01-20T20:36:40.234Z,-1.79
2023-01-20T20:39:08.168Z,-1.76
2023-01-20T20:41:36.754Z,-1.65
2023-01-20T20:44:04.580Z,-1.71
2023-01-20T20:46:32.770Z,-1.70
2023-01-20T20:49:01.181Z,-1.70
2023-01-20T20:51:32.062Z,-1.72
2023-01-20T20:54:02.076Z,-1.74
2023-01-20T20:56:32.027Z,-1.75
2023-01-20T20:59:02.896Z,-1.79
2023-01-20T21:01:33.418Z,-1.69
2023-01-20T21:04:01.466Z,-1.72
2023-01-20T21:06:30.674Z,-1.82
2023-01-20T21:08:58.893Z,-1.75
2023-01-20T21:11:26.825Z,-1.77
2023-01-20T21:13:54.310Z,-1.77
2023-01-20T21:16:23.477Z,-1.84
2023-01-20T21:18:53.039Z,-1.85
2023-01-20T21:21:21.230Z,-1.77
2023-01-20T21:23:51.069Z,-1.71
2023-01-20T21:26:19.533Z,-1.74
2023-01-20T21:28:49.462Z,-1.79
2023-01-20T21:31:21.478Z,-1.74
2023-01-20T21:33:55.698Z,-1.82
2023-01-20T21:36:23.486Z,-1.97
2023-01-20T21:38:51.184Z,-1.85
2023-01-20T21:41:19.356Z,-1.84
2023-01-20T21:44:06.634Z,-1.82
2023-01-20T21:46:38.648Z,-1.82
2023-01-20T21:49:25.630Z,-1.81
2023-01-20T21:52:13.470Z,-1.90
2023-01-20T21:54:41.664Z,-1.84
2023-01-20T21:57:09.571Z,-1.81
2023-01-20T21:59:37.486Z,-1.87
2023-01-20T22:02:05.407Z,-2.01
2023-01-20T22:04:32.861Z,-2.03
2023-01-20T22:07:00.609Z,-1.96
2023-01-20T22:09:28.346Z,-2.03
2023-01-20T22:11:55.892Z,-2.00
2023-01-20T22:14:23.324Z,-1.99
2023-01-20T22:16:51.189Z,-1.93
2023-01-20T22:19:18.614Z,-1.90
2023-01-20T22:21:46.110Z,-1.93
2023-01-20T22:24:13.310Z,-2.02
2023-01-20T22:26:40.845Z,-2.02
2023-01-20T22:29:08.410Z,-2.13
2023-01-20T22:31:36.055Z,-2.03
2023-01-20T22:34:05.425Z,-2.04
2023-01-20T22:36:34.673Z,-2.14
2023-01-20T22:39:03.097Z,-2.13
2023-01-20T22:41:30.915Z,-2.12
2023-01-20T22:43:58.764Z,-2.16
2023-01-20T22:46:28.269Z,-2.13
2023-01-20T22:48:57.501Z,-2.20
2023-01-20T22:51:28.996Z,-2.13
2023-01-20T22:53:58.244Z,-2.13
2023-01-20T22:56:32.416Z,-2.11
2023-01-20T22:59:00.615Z,-2.18
2023-01-20T23:01:30.969Z,-2.20
2023-01-20T23:04:00.587Z,-2.21
2023-01-20T23:06:30.852Z,-2.17
2023-01-20T23:08:58.920Z,-2.18
2023-01-20T23:11:26.466Z,-2.20
2023-01-20T23:13:53.935Z,-2.16
2023-01-20T23:16:22.766Z,-2.08
2023-01-20T23:18:51.618Z,-2.06
2023-01-20T23:21:21.519Z,-2.01
2023-01-20T23:23:54.703Z,-1.99
2023-01-20T23:26:25.704Z,-1.98
2023-01-20T23:28:54.210Z,-1.96
2023-01-20T23:31:24.006Z,-1.97
2023-01-20T23:33:53.133Z,-1.95
2023-01-20T23:36:23.441Z,-2.01
2023-01-20T23:38:50.650Z,-2.12
2023-01-20T23:41:18.164Z,-2.05
2023-01-20T23:43:45.307Z,-2.22
2023-01-20T23:46:12.914Z,-2.05
2023-01-20T23:48:40.218Z,-2.15
2023-01-20T23:51:08.144Z,-2.14
2023-01-20T23:53:38.446Z,-2.02
2023-01-20T23:56:17.954Z,-1.89
2023-01-20T23:58:45.604Z,-2.01
